Terminal Aerodrome Forecast
Issued by NWS Corpus Christi, TX

Home | Current Version | Previous Version | Text Only | Print | Product List | Glossary On
Versions: 1 2 3 4 5 6 7 8 9 10 11 12 13
000
FTUS44 KCRP 220500
TAFCRP
TAF
KCRP 220529Z 2206/2306 15008KT P6SM SCT015
      TEMPO 2210/2213 BKN015
     FM221400 15012KT P6SM SCT025 BKN200
     FM221700 12015G20KT P6SM FEW035 SCT250
     FM230300 15010KT P6SM SKC=

USA.gov is the U.S. government's official web portal to all federal, state and local government web resources and services.